createdAt,value
2018-11-12T00:00:27.830Z,11.05
2018-11-12T00:01:27.828Z,11.05
2018-11-12T00:02:27.883Z,11.11
2018-11-12T00:03:27.815Z,11.09
2018-11-12T00:04:27.796Z,11.11
2018-11-12T00:05:27.785Z,11.05
2018-11-12T00:06:27.803Z,11.08
2018-11-12T00:07:27.762Z,11.09
2018-11-12T00:08:27.773Z,11.11
2018-11-12T00:09:27.765Z,11.09
2018-11-12T00:10:27.733Z,11.11
2018-11-12T00:11:27.739Z,11.12
2018-11-12T00:12:27.719Z,11.13
2018-11-12T00:13:27.696Z,11.08
2018-11-12T00:14:27.819Z,11.08
2018-11-12T00:15:27.666Z,11.04
2018-11-12T00:16:27.662Z,11.09
2018-11-12T00:17:27.656Z,11.13
2018-11-12T00:18:27.659Z,11.12
2018-11-12T00:19:27.623Z,11.09
2018-11-12T00:20:27.680Z,11.09
2018-11-12T00:21:27.605Z,11.11
2018-11-12T00:22:27.589Z,11.09
2018-11-12T00:23:27.580Z,11.05
2018-11-12T00:24:27.570Z,11.05
2018-11-12T00:25:27.581Z,11.01
2018-11-12T00:26:27.606Z,10.97
2018-11-12T00:27:27.540Z,10.98
2018-11-12T00:28:27.538Z,10.86
2018-11-12T00:29:27.548Z,10.94
2018-11-12T00:30:27.518Z,10.90
2018-11-12T00:31:27.523Z,10.94
2018-11-12T00:32:27.563Z,10.80
2018-11-12T00:33:27.484Z,10.79
2018-11-12T00:34:27.462Z,10.82
2018-11-12T00:35:27.454Z,10.75
2018-11-12T00:36:27.463Z,10.76
2018-11-12T00:37:27.453Z,10.67
2018-11-12T00:38:27.458Z,10.70
2018-11-12T00:39:27.465Z,10.67
2018-11-12T00:40:27.405Z,10.67
2018-11-12T00:41:27.384Z,10.64
2018-11-12T00:42:27.369Z,10.72
2018-11-12T00:43:27.396Z,10.73
2018-11-12T00:44:27.388Z,10.68
2018-11-12T00:45:27.348Z,10.72
2018-11-12T00:46:27.327Z,10.67
2018-11-12T00:47:27.362Z,10.67
2018-11-12T00:48:27.338Z,10.68
2018-11-12T00:49:27.311Z,10.76
2018-11-12T00:50:27.513Z,10.70
2018-11-12T00:51:27.284Z,10.67
2018-11-12T00:52:27.264Z,10.78
2018-11-12T00:53:27.255Z,10.64
2018-11-12T00:54:27.262Z,10.67
2018-11-12T00:55:27.233Z,10.72
2018-11-12T00:56:27.276Z,10.65
2018-11-12T00:57:27.209Z,10.67
2018-11-12T00:58:27.194Z,10.64
2018-11-12T00:59:27.256Z,10.67
2018-11-12T01:00:27.174Z,10.65
2018-11-12T01:01:27.164Z,10.67
2018-11-12T01:02:27.183Z,10.65
2018-11-12T01:03:27.140Z,10.67
2018-11-12T01:04:27.173Z,10.72
2018-11-12T01:05:27.123Z,10.70
2018-11-12T01:06:27.113Z,10.65
2018-11-12T01:07:27.103Z,10.72
2018-11-12T01:08:27.134Z,10.68
2018-11-12T01:09:27.103Z,10.70
2018-11-12T01:10:27.077Z,10.65
2018-11-12T01:11:27.069Z,10.70
2018-11-12T01:12:27.044Z,10.65
2018-11-12T01:13:27.043Z,10.62
2018-11-12T01:14:27.072Z,10.65
2018-11-12T01:15:27.016Z,10.61
2018-11-12T01:16:27.003Z,10.64
2018-11-12T01:17:26.995Z,10.68
2018-11-12T01:18:26.988Z,10.61
2018-11-12T01:19:26.980Z,10.62
2018-11-12T01:20:27.000Z,10.68
2018-11-12T01:21:26.970Z,10.61
2018-11-12T01:22:26.935Z,10.64
2018-11-12T01:23:26.928Z,10.68
2018-11-12T01:24:26.927Z,10.67
2018-11-12T01:25:26.912Z,10.67
2018-11-12T01:26:26.939Z,10.72
2018-11-12T01:27:26.887Z,10.65
2018-11-12T01:28:26.901Z,10.67
2018-11-12T01:29:26.875Z,10.70
2018-11-12T01:30:26.857Z,10.68
2018-11-12T01:31:26.839Z,10.75
2018-11-12T01:32:26.889Z,10.65
2018-11-12T01:33:26.819Z,10.75
2018-11-12T01:34:26.821Z,10.76
2018-11-12T01:35:26.805Z,10.85
2018-11-12T01:36:26.783Z,10.85
2018-11-12T01:37:26.788Z,10.73
2018-11-12T01:38:26.790Z,10.90
2018-11-12T01:39:26.753Z,10.76
2018-11-12T01:40:26.734Z,10.90
2018-11-12T01:41:26.729Z,10.93
2018-11-12T01:42:26.720Z,11.03
2018-11-12T01:43:26.703Z,10.98
2018-11-12T01:44:26.751Z,10.98
2018-11-12T01:45:26.700Z,11.01
2018-11-12T01:46:26.684Z,11.03
2018-11-12T01:47:26.659Z,10.97
2018-11-12T01:48:26.655Z,10.95
2018-11-12T01:49:26.640Z,11.03
2018-11-12T01:50:26.665Z,11.05
2018-11-12T01:51:26.618Z,11.13
2018-11-12T01:52:26.605Z,11.04
2018-11-12T01:53:26.605Z,11.13
2018-11-12T01:54:26.615Z,11.11
2018-11-12T01:55:26.574Z,11.11
2018-11-12T01:56:26.614Z,11.08
2018-11-12T01:57:26.549Z,11.13
2018-11-12T01:58:26.541Z,11.09
2018-11-12T01:59:26.527Z,11.11
2018-11-12T02:00:26.538Z,11.20
2018-11-12T02:01:26.544Z,11.20
2018-11-12T02:02:26.554Z,11.23
2018-11-12T02:03:26.487Z,11.20
2018-11-12T02:04:26.477Z,11.18
2018-11-12T02:05:26.468Z,11.27
2018-11-12T02:06:26.453Z,11.22
2018-11-12T02:07:26.483Z,11.23
2018-11-12T02:08:26.467Z,11.25
2018-11-12T02:09:26.424Z,11.23
2018-11-12T02:10:26.411Z,11.23
2018-11-12T02:11:26.408Z,11.22
2018-11-12T02:12:26.390Z,11.20
2018-11-12T02:13:26.381Z,11.20
2018-11-12T02:14:26.442Z,11.20
2018-11-12T02:15:26.385Z,11.16
2018-11-12T02:16:26.346Z,11.18
2018-11-12T02:17:26.333Z,11.30
2018-11-12T02:18:26.332Z,11.22
2018-11-12T02:19:26.314Z,11.27
2018-11-12T02:20:26.334Z,11.28
2018-11-12T02:21:26.311Z,11.23
2018-11-12T02:22:26.339Z,11.22
2018-11-12T02:23:26.283Z,11.27
2018-11-12T02:24:26.274Z,11.13
2018-11-12T02:25:26.258Z,11.18
2018-11-12T02:26:26.286Z,11.23
2018-11-12T02:27:26.226Z,11.13
2018-11-12T02:28:26.220Z,11.09
2018-11-12T02:29:26.201Z,11.11
2018-11-12T02:30:26.196Z,11.05
2018-11-12T02:31:26.216Z,11.09
2018-11-12T02:32:26.363Z,11.09
2018-11-12T02:33:26.220Z,11.05
2018-11-12T02:34:26.151Z,11.11
2018-11-12T02:35:26.141Z,11.00
2018-11-12T02:36:26.132Z,11.04
2018-11-12T02:37:26.131Z,11.04
2018-11-12T02:38:26.143Z,11.01
2018-11-12T02:39:26.099Z,11.03
2018-11-12T02:40:26.082Z,11.00
2018-11-12T02:41:26.073Z,10.97
2018-11-12T02:42:26.060Z,10.98
2018-11-12T02:43:26.070Z,11.01
2018-11-12T02:44:26.090Z,11.05
2018-11-12T02:45:26.025Z,10.98
2018-11-12T02:46:26.018Z,10.93
2018-11-12T02:47:26.009Z,10.85
2018-11-12T02:48:26.001Z,10.86
2018-11-12T02:49:26.046Z,10.87
2018-11-12T02:50:26.020Z,10.86
2018-11-12T02:51:25.969Z,10.78
2018-11-12T02:52:25.951Z,10.87
2018-11-12T02:53:25.943Z,10.80
2018-11-12T02:54:25.939Z,10.83
2018-11-12T02:55:25.936Z,10.87
2018-11-12T02:56:25.952Z,10.86
2018-11-12T02:57:25.914Z,10.91
2018-11-12T02:58:25.913Z,10.86
2018-11-12T02:59:25.883Z,10.90
2018-11-12T03:00:25.871Z,10.91
2018-11-12T03:01:25.874Z,10.82
2018-11-12T03:02:25.908Z,10.86
2018-11-12T03:03:25.855Z,10.94
2018-11-12T03:04:25.841Z,10.91
2018-11-12T03:05:25.841Z,10.91
2018-11-12T03:06:25.835Z,10.93
2018-11-12T03:07:25.856Z,10.90
2018-11-12T03:08:25.831Z,10.90
2018-11-12T03:09:25.783Z,10.76
2018-11-12T03:10:25.795Z,10.80
2018-11-12T03:11:25.752Z,10.76
2018-11-12T03:12:25.744Z,10.75
2018-11-12T03:13:25.724Z,10.80
2018-11-12T03:14:25.769Z,10.80
2018-11-12T03:15:25.700Z,10.78
2018-11-12T03:16:25.701Z,10.79
2018-11-12T03:17:25.685Z,10.73
2018-11-12T03:18:25.715Z,10.76
2018-11-12T03:19:25.666Z,10.80
2018-11-12T03:20:25.854Z,10.76
2018-11-12T03:21:25.638Z,10.78
2018-11-12T03:22:25.635Z,10.79
2018-11-12T03:23:25.625Z,10.80
2018-11-12T03:24:25.606Z,10.80
2018-11-12T03:25:25.602Z,10.73
2018-11-12T03:26:25.625Z,10.75
2018-11-12T03:27:25.628Z,10.78
2018-11-12T03:28:25.575Z,10.72
2018-11-12T03:29:25.604Z,10.76
2018-11-12T03:30:25.540Z,10.76
2018-11-12T03:31:25.532Z,10.70
2018-11-12T03:32:25.572Z,10.75
2018-11-12T03:33:25.521Z,10.67
2018-11-12T03:34:25.499Z,10.62
2018-11-12T03:35:25.486Z,10.65
2018-11-12T03:36:25.496Z,10.68
2018-11-12T03:37:25.482Z,10.67
2018-11-12T03:38:25.497Z,10.67
2018-11-12T03:39:25.465Z,10.70
2018-11-12T03:40:25.447Z,10.65
2018-11-12T03:41:25.428Z,10.67
2018-11-12T03:42:25.412Z,10.68
2018-11-12T03:43:25.400Z,10.68
2018-11-12T03:44:25.428Z,10.72
2018-11-12T03:45:25.413Z,10.70
2018-11-12T03:46:25.382Z,10.72
2018-11-12T03:47:25.358Z,10.65
2018-11-12T03:48:25.398Z,10.68
2018-11-12T03:49:25.363Z,10.70
2018-11-12T03:50:25.371Z,10.70
2018-11-12T03:51:25.331Z,10.68
2018-11-12T03:52:25.420Z,10.67
2018-11-12T03:53:25.305Z,10.61
2018-11-12T03:54:25.302Z,10.54
2018-11-12T03:55:25.269Z,10.64
2018-11-12T03:56:25.296Z,10.61
2018-11-12T03:57:25.251Z,10.60
2018-11-12T03:58:25.242Z,10.58
2018-11-12T03:59:25.227Z,10.52
2018-11-12T04:00:25.388Z,10.57
2018-11-12T04:01:25.213Z,10.62
2018-11-12T04:02:25.251Z,10.60
2018-11-12T04:03:25.183Z,10.68
2018-11-12T04:04:25.184Z,10.60
2018-11-12T04:05:25.168Z,10.54
2018-11-12T04:06:25.150Z,10.61
2018-11-12T04:07:25.140Z,10.52
2018-11-12T04:08:25.179Z,10.64
2018-11-12T04:09:25.131Z,10.57
2018-11-12T04:10:25.107Z,10.52
2018-11-12T04:11:25.095Z,10.64
2018-11-12T04:12:25.086Z,10.64
2018-11-12T04:13:25.077Z,10.55
2018-11-12T04:14:25.111Z,10.65
2018-11-12T04:15:25.088Z,10.62
2018-11-12T04:16:25.047Z,10.48
2018-11-12T04:17:25.033Z,10.62
2018-11-12T04:18:25.023Z,10.55
2018-11-12T04:19:25.021Z,10.57
2018-11-12T04:20:25.038Z,10.48
2018-11-12T04:21:24.997Z,10.55
2018-11-12T04:22:25.023Z,10.49
2018-11-12T04:23:24.976Z,10.49
2018-11-12T04:24:24.957Z,10.60
2018-11-12T04:25:24.954Z,10.61
2018-11-12T04:26:24.989Z,10.55
2018-11-12T04:27:24.925Z,10.57
2018-11-12T04:28:24.911Z,10.49
2018-11-12T04:29:24.902Z,10.48
2018-11-12T04:30:24.908Z,10.52
2018-11-12T04:31:24.879Z,10.46
2018-11-12T04:32:24.906Z,10.48
2018-11-12T04:33:24.859Z,10.46
2018-11-12T04:34:24.848Z,10.41
2018-11-12T04:35:24.836Z,10.48
2018-11-12T04:36:24.823Z,10.42
2018-11-12T04:37:24.829Z,10.42
2018-11-12T04:38:24.899Z,10.45
2018-11-12T04:39:24.810Z,10.45
2018-11-12T04:40:24.782Z,10.48
2018-11-12T04:41:24.770Z,10.41
2018-11-12T04:42:24.778Z,10.42
2018-11-12T04:43:24.760Z,10.45
2018-11-12T04:44:24.802Z,10.34
2018-11-12T04:45:24.770Z,10.43
2018-11-12T04:46:24.715Z,10.41
2018-11-12T04:47:24.703Z,10.36
2018-11-12T04:48:24.693Z,10.45
2018-11-12T04:49:24.691Z,10.42
2018-11-12T04:50:24.715Z,10.41
2018-11-12T04:51:24.679Z,10.41
2018-11-12T04:52:24.669Z,10.45
2018-11-12T04:53:24.646Z,10.41
2018-11-12T04:54:24.636Z,10.41
2018-11-12T04:55:24.763Z,10.34
2018-11-12T04:56:24.656Z,10.41
2018-11-12T04:57:24.608Z,10.35
2018-11-12T04:58:24.604Z,10.35
2018-11-12T04:59:24.589Z,10.41
2018-11-12T05:00:24.568Z,10.42
2018-11-12T05:01:24.558Z,10.46
2018-11-12T05:02:24.590Z,10.45
2018-11-12T05:03:24.534Z,10.42
2018-11-12T05:04:24.522Z,10.41
2018-11-12T05:05:24.519Z,10.41
2018-11-12T05:06:24.515Z,10.41
2018-11-12T05:07:24.504Z,10.42
2018-11-12T05:08:24.511Z,10.41
2018-11-12T05:09:24.473Z,10.43
2018-11-12T05:10:24.468Z,10.41
2018-11-12T05:11:24.499Z,10.38
2018-11-12T05:12:24.667Z,10.43
2018-11-12T05:13:24.429Z,10.39
2018-11-12T05:14:24.445Z,10.43
2018-11-12T05:15:24.436Z,10.41
2018-11-12T05:16:24.578Z,10.43
2018-11-12T05:17:24.382Z,10.42
2018-11-12T05:18:24.367Z,10.45
2018-11-12T05:19:24.356Z,10.43
2018-11-12T05:20:24.432Z,10.43
2018-11-12T05:21:24.336Z,10.42
2018-11-12T05:22:24.379Z,10.48
2018-11-12T05:23:24.316Z,10.48
2018-11-12T05:24:24.308Z,10.46
2018-11-12T05:25:24.305Z,10.48
2018-11-12T05:26:24.358Z,10.46
2018-11-12T05:27:24.360Z,10.43
2018-11-12T05:28:24.280Z,10.46
2018-11-12T05:29:24.258Z,10.39
2018-11-12T05:30:24.235Z,10.43
2018-11-12T05:31:24.225Z,10.46
2018-11-12T05:32:24.257Z,10.38
2018-11-12T05:33:24.201Z,10.43
2018-11-12T05:34:24.190Z,10.43
2018-11-12T05:35:24.183Z,10.42
2018-11-12T05:36:24.170Z,10.48
2018-11-12T05:37:24.168Z,10.42
2018-11-12T05:38:24.289Z,10.38
2018-11-12T05:39:24.140Z,10.41
2018-11-12T05:40:24.142Z,10.34
2018-11-12T05:41:24.139Z,10.46
2018-11-12T05:42:24.143Z,10.49
2018-11-12T05:43:24.104Z,10.46
2018-11-12T05:44:24.120Z,10.41
2018-11-12T05:45:24.076Z,10.38
2018-11-12T05:46:24.111Z,10.45
2018-11-12T05:47:24.050Z,10.46
2018-11-12T05:48:24.048Z,10.38
2018-11-12T05:49:24.039Z,10.41
2018-11-12T05:50:24.101Z,10.38
2018-11-12T05:51:24.109Z,10.41
2018-11-12T05:52:24.043Z,10.42
2018-11-12T05:53:23.997Z,10.41
2018-11-12T05:54:23.977Z,10.41
2018-11-12T05:55:23.995Z,10.45
2018-11-12T05:56:24.004Z,10.41
2018-11-12T05:57:23.953Z,10.38
2018-11-12T05:58:23.979Z,10.41
2018-11-12T05:59:23.933Z,10.42
2018-11-12T06:00:23.912Z,10.48
2018-11-12T06:01:23.923Z,10.46
2018-11-12T06:02:23.946Z,10.38
2018-11-12T06:03:23.880Z,10.41
2018-11-12T06:04:23.863Z,10.45
2018-11-12T06:05:23.921Z,10.42
2018-11-12T06:06:23.846Z,10.45
2018-11-12T06:07:23.849Z,10.43
2018-11-12T06:08:23.882Z,10.43
2018-11-12T06:09:23.878Z,10.46
2018-11-12T06:10:23.805Z,10.38
2018-11-12T06:11:23.804Z,10.38
2018-11-12T06:12:23.785Z,10.41
2018-11-12T06:13:23.770Z,10.46
2018-11-12T06:14:23.808Z,10.46
2018-11-12T06:15:23.763Z,10.46
2018-11-12T06:16:23.785Z,10.38
2018-11-12T06:17:23.727Z,10.41
2018-11-12T06:18:23.716Z,10.42
2018-11-12T06:19:23.701Z,10.42
2018-11-12T06:20:23.751Z,10.39
2018-11-12T06:21:23.679Z,10.39
2018-11-12T06:22:23.696Z,10.46
2018-11-12T06:23:23.662Z,10.41
2018-11-12T06:24:23.652Z,10.39
2018-11-12T06:25:23.671Z,10.43
2018-11-12T06:26:23.704Z,10.43
2018-11-12T06:27:23.623Z,10.45
2018-11-12T06:28:23.607Z,10.41
2018-11-12T06:29:23.598Z,10.46
2018-11-12T06:30:23.631Z,10.34
2018-11-12T06:31:23.685Z,10.39
2018-11-12T06:32:23.664Z,10.38
2018-11-12T06:33:23.554Z,10.38
2018-11-12T06:34:23.551Z,10.46
2018-11-12T06:35:23.538Z,10.52
2018-11-12T06:36:23.520Z,10.42
2018-11-12T06:37:23.526Z,10.45
2018-11-12T06:38:23.563Z,10.48
2018-11-12T06:39:23.494Z,10.48
2018-11-12T06:40:23.473Z,10.43
2018-11-12T06:41:23.472Z,10.43
2018-11-12T06:42:23.531Z,10.49
2018-11-12T06:43:23.466Z,10.43
2018-11-12T06:44:23.516Z,10.52
2018-11-12T06:45:23.442Z,10.48
2018-11-12T06:46:23.413Z,10.45
2018-11-12T06:47:23.401Z,10.45
2018-11-12T06:48:23.388Z,10.48
2018-11-12T06:49:23.382Z,10.55
2018-11-12T06:50:23.452Z,10.54
2018-11-12T06:51:23.433Z,10.54
2018-11-12T06:52:23.362Z,10.58
2018-11-12T06:53:23.358Z,10.58
2018-11-12T06:54:23.343Z,10.54
2018-11-12T06:55:23.319Z,10.57
2018-11-12T06:56:23.348Z,10.54
2018-11-12T06:57:23.321Z,10.46
2018-11-12T06:58:23.285Z,10.57
2018-11-12T06:59:23.278Z,10.54
2018-11-12T07:00:23.267Z,10.57
2018-11-12T07:01:23.251Z,10.52
2018-11-12T07:02:23.294Z,10.60
2018-11-12T07:03:23.271Z,10.55
2018-11-12T07:04:23.218Z,10.52
2018-11-12T07:05:23.225Z,10.58
2018-11-12T07:06:23.261Z,10.54
2018-11-12T07:07:23.190Z,10.60
2018-11-12T07:08:23.211Z,10.67
2018-11-12T07:09:23.167Z,10.70
2018-11-12T07:10:23.152Z,10.54
2018-11-12T07:11:23.153Z,10.57
2018-11-12T07:12:23.149Z,10.57
2018-11-12T07:13:23.171Z,10.57
2018-11-12T07:14:23.148Z,10.60
2018-11-12T07:15:23.105Z,10.55
2018-11-12T07:16:23.085Z,10.57
2018-11-12T07:17:23.077Z,10.67
2018-11-12T07:18:23.069Z,10.60
2018-11-12T07:19:23.101Z,10.60
2018-11-12T07:20:23.092Z,10.65
2018-11-12T07:21:23.038Z,10.64
2018-11-12T07:22:23.046Z,10.64
2018-11-12T07:23:23.025Z,10.61
2018-11-12T07:24:23.002Z,10.67
2018-11-12T07:25:23.065Z,10.65
2018-11-12T07:26:23.028Z,10.67
2018-11-12T07:27:23.032Z,10.61
2018-11-12T07:28:22.960Z,10.62
2018-11-12T07:29:22.989Z,10.70
2018-11-12T07:30:22.958Z,10.72
2018-11-12T07:31:23.003Z,10.79
2018-11-12T07:32:22.959Z,10.79
2018-11-12T07:33:22.956Z,10.75
2018-11-12T07:34:22.893Z,10.79
2018-11-12T07:35:22.885Z,10.78
2018-11-12T07:36:22.868Z,10.91
2018-11-12T07:37:22.871Z,10.90
2018-11-12T07:38:22.917Z,11.00
2018-11-12T07:39:22.902Z,10.98
2018-11-12T07:40:22.854Z,10.97
2018-11-12T07:41:22.827Z,10.98
2018-11-12T07:42:22.832Z,11.11
2018-11-12T07:43:22.799Z,11.15
2018-11-12T07:44:22.808Z,11.13
2018-11-12T07:45:22.781Z,11.25
2018-11-12T07:46:22.762Z,11.22
2018-11-12T07:47:22.754Z,11.34
2018-11-12T07:48:22.768Z,11.38
2018-11-12T07:49:22.751Z,11.43
2018-11-12T07:50:22.777Z,11.38
2018-11-12T07:51:22.782Z,11.38
2018-11-12T07:52:22.721Z,11.51
2018-11-12T07:53:22.692Z,11.52
2018-11-12T07:54:22.762Z,11.69
2018-11-12T07:55:22.672Z,11.71
2018-11-12T07:56:22.792Z,11.82
2018-11-12T07:57:22.645Z,11.85
2018-11-12T07:58:22.635Z,11.91
2018-11-12T07:59:22.669Z,12.05
2018-11-12T08:00:22.620Z,12.07
2018-11-12T08:01:22.606Z,12.14
2018-11-12T08:02:22.649Z,12.22
2018-11-12T08:03:22.642Z,12.30
2018-11-12T08:04:22.568Z,12.47
2018-11-12T08:05:22.553Z,12.53
2018-11-12T08:06:22.580Z,12.44
2018-11-12T08:07:22.545Z,12.51
2018-11-12T08:08:22.597Z,12.62
2018-11-12T08:09:22.558Z,12.76
2018-11-12T08:10:22.497Z,12.86
2018-11-12T08:11:22.498Z,12.95
2018-11-12T08:12:22.502Z,13.04
2018-11-12T08:13:22.471Z,13.19
2018-11-12T08:14:22.567Z,13.27
2018-11-12T08:15:22.450Z,13.43
2018-11-12T08:16:22.440Z,13.58
2018-11-12T08:17:22.491Z,13.54
2018-11-12T08:18:22.415Z,13.60
2018-11-12T08:19:22.407Z,13.71
2018-11-12T08:20:22.445Z,13.72
2018-11-12T08:21:22.393Z,13.65
2018-11-12T08:22:22.368Z,13.72
2018-11-12T08:23:22.357Z,13.71
2018-11-12T08:24:22.645Z,13.76
2018-11-12T08:25:22.331Z,13.72
2018-11-12T08:26:22.360Z,13.67
2018-11-12T08:27:22.368Z,13.73
2018-11-12T08:28:22.303Z,13.73
2018-11-12T08:29:22.289Z,13.78
2018-11-12T08:30:22.390Z,13.64
2018-11-12T08:31:22.273Z,13.67
2018-11-12T08:32:22.296Z,13.61
2018-11-12T08:33:22.241Z,13.67
2018-11-12T08:34:22.233Z,13.54
2018-11-12T08:35:22.221Z,13.65
2018-11-12T08:36:22.274Z,13.54
2018-11-12T08:37:22.226Z,13.51
2018-11-12T08:38:22.236Z,13.47
2018-11-12T08:39:22.345Z,13.43
2018-11-12T08:40:22.229Z,13.43
2018-11-12T08:41:22.152Z,13.40
2018-11-12T08:42:22.148Z,13.36
2018-11-12T08:43:22.161Z,13.46
2018-11-12T08:44:22.159Z,13.55
2018-11-12T08:45:22.115Z,13.53
2018-11-12T08:46:22.099Z,13.55
2018-11-12T08:47:22.088Z,13.54
2018-11-12T08:48:22.104Z,13.53
2018-11-12T08:49:22.150Z,13.61
2018-11-12T08:50:22.117Z,13.64
2018-11-12T08:51:22.074Z,13.78
2018-11-12T08:52:22.168Z,13.86
2018-11-12T08:53:22.021Z,13.90
2018-11-12T08:54:22.034Z,14.03
2018-11-12T08:55:22.034Z,14.11
2018-11-12T08:56:22.047Z,14.16
2018-11-12T08:57:21.985Z,14.28
2018-11-12T08:58:21.967Z,14.45
2018-11-12T08:59:22.087Z,14.45
2018-11-12T09:00:21.961Z,14.51
2018-11-12T09:01:21.937Z,14.56
2018-11-12T09:02:21.967Z,14.66
2018-11-12T09:03:21.922Z,14.67
2018-11-12T09:04:21.902Z,14.86
2018-11-12T09:05:21.894Z,14.86
2018-11-12T09:06:21.881Z,14.93
2018-11-12T09:07:21.929Z,15.01
2018-11-12T09:08:21.880Z,15.10
2018-11-12T09:09:21.844Z,15.05
2018-11-12T09:10:21.856Z,15.15
2018-11-12T09:11:21.822Z,15.22
2018-11-12T09:12:21.814Z,15.23
2018-11-12T09:13:21.819Z,15.32
2018-11-12T09:14:21.840Z,15.23
2018-11-12T09:15:21.773Z,15.23
2018-11-12T09:16:21.774Z,15.33
2018-11-12T09:17:21.760Z,15.35
2018-11-12T09:18:21.751Z,15.44
2018-11-12T09:19:21.740Z,15.47
2018-11-12T09:20:21.784Z,15.59
2018-11-12T09:21:21.720Z,15.56
2018-11-12T09:22:21.707Z,15.65
2018-11-12T09:23:21.685Z,15.59
2018-11-12T09:24:21.715Z,15.70
2018-11-12T09:25:21.680Z,15.66
2018-11-12T09:26:21.701Z,15.69
2018-11-12T09:27:21.662Z,15.73
2018-11-12T09:28:21.634Z,15.68
2018-11-12T09:29:21.672Z,15.78
2018-11-12T09:30:21.622Z,15.84
2018-11-12T09:31:22.439Z,15.88
2018-11-12T09:32:21.644Z,15.85
2018-11-12T09:33:21.589Z,15.84
2018-11-12T09:34:21.567Z,15.93
2018-11-12T09:35:21.621Z,15.93
2018-11-12T09:37:21.553Z,16.00
2018-11-12T09:39:21.520Z,16.14
2018-11-12T09:40:21.510Z,16.17
2018-11-12T09:41:21.514Z,16.22
2018-11-12T09:42:21.520Z,16.24
2018-11-12T09:43:21.505Z,16.26
2018-11-12T09:44:21.510Z,16.25
2018-11-12T09:45:21.457Z,16.29
2018-11-12T09:46:21.438Z,16.36
2018-11-12T09:47:21.428Z,16.47
2018-11-12T09:48:21.436Z,16.52
2018-11-12T09:49:21.405Z,16.49
2018-11-12T09:50:21.441Z,16.52
2018-11-12T09:51:21.389Z,16.44
2018-11-12T09:52:21.373Z,16.54
2018-11-12T09:53:21.386Z,16.64
2018-11-12T09:54:21.433Z,16.58
2018-11-12T09:55:21.355Z,16.62
2018-11-12T09:56:21.371Z,16.76
2018-11-12T09:57:21.320Z,16.82
2018-11-12T09:58:21.317Z,16.69
2018-11-12T09:59:21.346Z,16.91
2018-11-12T10:00:21.561Z,16.91
2018-11-12T10:01:21.709Z,17.09
2018-11-12T10:02:21.843Z,17.01
2018-11-12T10:03:22.442Z,17.04
2018-11-12T10:04:21.922Z,17.04
2018-11-12T10:05:22.290Z,17.07
2018-11-12T10:06:22.671Z,17.10
2018-11-12T10:07:22.354Z,17.14
2018-11-12T10:08:22.334Z,17.24
2018-11-12T10:09:23.862Z,17.25
2018-11-12T10:10:23.447Z,17.19
2018-11-12T10:11:23.256Z,17.25
2018-11-12T10:12:23.608Z,17.30
2018-11-12T10:13:24.397Z,17.31
2018-11-12T10:14:24.702Z,17.38
2018-11-12T10:15:23.021Z,17.38
2018-11-12T10:16:23.478Z,17.31
2018-11-12T10:17:24.168Z,17.43
2018-11-12T10:18:21.107Z,17.37
2018-11-12T10:19:21.117Z,17.34
2018-11-12T10:20:21.174Z,17.41
2018-11-12T10:21:21.091Z,17.43
2018-11-12T10:22:21.060Z,17.50
2018-11-12T10:23:21.042Z,17.49
2018-11-12T10:24:21.030Z,17.50
2018-11-12T10:25:21.043Z,17.57
2018-11-12T10:26:21.094Z,17.59
2018-11-12T10:27:21.013Z,17.47
2018-11-12T10:28:20.982Z,17.56
2018-11-12T10:29:20.965Z,17.56
2018-11-12T10:30:20.960Z,17.54
2018-11-12T10:31:20.989Z,17.54
2018-11-12T10:32:21.011Z,17.43
2018-11-12T10:33:20.941Z,17.52
2018-11-12T10:34:20.914Z,17.65
2018-11-12T10:35:20.917Z,17.50
2018-11-12T10:36:20.910Z,17.62
2018-11-12T10:37:20.887Z,17.53
2018-11-12T10:38:20.930Z,17.59
2018-11-12T10:39:20.863Z,17.56
2018-11-12T10:40:20.845Z,17.63
2018-11-12T10:41:20.908Z,17.63
2018-11-12T10:42:20.873Z,17.68
2018-11-12T10:43:20.816Z,17.73
2018-11-12T10:44:20.992Z,17.81
2018-11-12T10:45:20.814Z,17.81
2018-11-12T10:46:20.789Z,17.79
2018-11-12T10:47:20.773Z,17.81
2018-11-12T10:48:20.778Z,17.84
2018-11-12T10:49:20.749Z,17.81
2018-11-12T10:50:20.761Z,17.84
2018-11-12T10:51:20.780Z,17.88
2018-11-12T10:52:20.738Z,17.90
2018-11-12T10:53:20.696Z,17.86
2018-11-12T10:54:20.743Z,17.81
2018-11-12T10:55:20.879Z,17.87
2018-11-12T10:56:20.751Z,17.87
2018-11-12T10:57:20.672Z,17.93
2018-11-12T10:58:20.701Z,17.94
2018-11-12T10:59:20.636Z,18.05
2018-11-12T11:00:20.682Z,18.05
2018-11-12T11:01:20.630Z,18.02
2018-11-12T11:02:20.653Z,18.06
2018-11-12T11:03:20.590Z,18.12
2018-11-12T11:04:20.585Z,18.06
2018-11-12T11:05:20.575Z,18.06
2018-11-12T11:06:20.559Z,18.06
2018-11-12T11:07:20.547Z,18.09
2018-11-12T11:08:20.635Z,18.08
2018-11-12T11:09:20.545Z,18.11
2018-11-12T11:10:20.521Z,18.11
2018-11-12T11:11:20.507Z,18.12
2018-11-12T11:12:20.502Z,18.13
2018-11-12T11:13:20.495Z,18.24
2018-11-12T11:14:20.525Z,18.21
2018-11-12T11:15:20.476Z,18.17
2018-11-12T11:16:20.466Z,18.18
2018-11-12T11:17:20.441Z,18.23
2018-11-12T11:18:20.425Z,18.26
2018-11-12T11:19:20.415Z,18.38
2018-11-12T11:20:20.441Z,18.30
2018-11-12T11:21:20.469Z,18.28
2018-11-12T11:22:20.398Z,18.28
2018-11-12T11:23:20.374Z,18.34
2018-11-12T11:24:20.357Z,18.34
2018-11-12T11:25:20.349Z,18.48
2018-11-12T11:26:20.378Z,18.30
2018-11-12T11:27:20.336Z,18.23
2018-11-12T11:28:20.331Z,18.27
2018-11-12T11:29:20.313Z,18.30
2018-11-12T11:30:20.305Z,18.34
2018-11-12T11:31:20.330Z,18.42
2018-11-12T11:32:20.339Z,18.28
2018-11-12T11:33:20.282Z,18.36
2018-11-12T11:34:20.251Z,18.31
2018-11-12T11:35:20.240Z,18.36
2018-11-12T11:36:20.319Z,18.41
2018-11-12T11:37:20.235Z,18.43
2018-11-12T11:38:20.258Z,18.33
2018-11-12T11:39:20.193Z,18.26
2018-11-12T11:40:20.281Z,18.24
2018-11-12T11:41:20.171Z,18.13
2018-11-12T11:42:20.162Z,18.13
2018-11-12T11:43:20.168Z,18.02
2018-11-12T11:44:20.180Z,18.01
2018-11-12T11:45:20.125Z,18.03
2018-11-12T11:46:20.122Z,18.12
2018-11-12T11:47:20.221Z,18.12
2018-11-12T11:48:20.093Z,18.06
2018-11-12T11:49:20.093Z,18.05
2018-11-12T11:50:20.285Z,18.03
2018-11-12T11:51:20.066Z,18.03
2018-11-12T11:52:20.064Z,17.91
2018-11-12T11:53:20.043Z,18.05
2018-11-12T11:54:20.027Z,18.05
2018-11-12T11:55:20.017Z,17.94
2018-11-12T11:56:20.135Z,17.94
2018-11-12T11:57:20.096Z,17.93
2018-11-12T11:58:19.983Z,17.91
2018-11-12T11:59:19.993Z,17.93
2018-11-12T12:00:19.959Z,17.93
2018-11-12T12:01:19.958Z,17.99
2018-11-12T12:02:20.063Z,18.06
2018-11-12T12:03:19.953Z,18.18
2018-11-12T12:04:19.927Z,18.24
2018-11-12T12:05:19.915Z,18.34
2018-11-12T12:06:19.896Z,18.33
2018-11-12T12:07:19.921Z,18.43
2018-11-12T12:08:19.956Z,18.51
2018-11-12T12:09:19.933Z,18.52
2018-11-12T12:10:19.853Z,18.41
2018-11-12T12:11:19.841Z,18.41
2018-11-12T12:12:19.833Z,18.57
2018-11-12T12:13:19.858Z,18.54
2018-11-12T12:14:19.843Z,18.56
2018-11-12T12:15:19.817Z,18.61
2018-11-12T12:16:19.781Z,18.68
2018-11-12T12:17:19.784Z,18.58
2018-11-12T12:18:19.781Z,18.66
2018-11-12T12:19:19.842Z,18.56
2018-11-12T12:20:19.780Z,18.67
2018-11-12T12:21:19.727Z,18.63
2018-11-12T12:22:19.730Z,18.70
2018-11-12T12:23:19.731Z,18.76
2018-11-12T12:24:19.760Z,18.83
2018-11-12T12:25:19.807Z,18.75
2018-11-12T12:26:19.722Z,18.68
2018-11-12T12:27:19.669Z,18.75
2018-11-12T12:28:19.656Z,18.83
2018-11-12T12:29:19.652Z,19.00
2018-11-12T12:30:19.634Z,19.00
2018-11-12T12:31:19.737Z,19.13
2018-11-12T12:32:19.666Z,19.08
2018-11-12T12:33:19.594Z,19.13
2018-11-12T12:34:19.591Z,19.08
2018-11-12T12:35:19.572Z,19.15
2018-11-12T12:36:19.613Z,19.13
2018-11-12T12:37:19.558Z,19.13
2018-11-12T12:38:19.592Z,19.20
2018-11-12T12:39:19.541Z,19.24
2018-11-12T12:40:19.530Z,19.24
2018-11-12T12:41:19.533Z,19.34
2018-11-12T12:42:19.533Z,19.41
2018-11-12T12:43:19.495Z,19.47
2018-11-12T12:44:19.563Z,19.47
2018-11-12T12:45:19.633Z,19.39
2018-11-12T12:46:19.459Z,19.35
2018-11-12T12:47:19.487Z,19.39
2018-11-12T12:48:19.437Z,19.56
2018-11-12T12:49:19.477Z,19.53
2018-11-12T12:50:19.457Z,19.63
2018-11-12T12:51:19.462Z,19.68
2018-11-12T12:52:19.396Z,19.71
2018-11-12T12:53:19.404Z,19.63
2018-11-12T12:54:19.373Z,19.57